WetterOnline ( https://www.wetteronline.ch )

Wetter aktuell Ostalb

Aktuelles Wetter: Geislingen/Stötten (737m)

6-stündlich | Neueste Meldungen
Ortszeit Temperatur Wetter
Mi, 22.01. 19:00 -3.3° C wolkenlos
Mi, 22.01. 13:00 -3.1° C fast wolkenlos
Mi, 22.01. 7:00 -6.1° C Nebel
Mi, 22.01. 1:00 -5.1° C Nebel
Di, 21.01. 19:00 -4.5° C Nebel
Di, 21.01. 13:00 -3.0° C bedeckt
Di, 21.01. 7:00 -3.8° C Nebel
Di, 21.01. 1:00 -2.7° C leicht bewölkt
Ortszeit Temperatur Wetter
Mi, 22.01. 21:00 -5.2° C leicht bewölkt
Mi, 22.01. 20:50 -5.2° C leicht bewölkt
Mi, 22.01. 20:40 -5.3° C Nebel
Mi, 22.01. 20:30 -5.3° C Nebel
Mi, 22.01. 20:20 -5.3° C Nebel
Mi, 22.01. 20:10 -5.0° C wolkig
Mi, 22.01. 20:00 -5.3° C Nebel
Mi, 22.01. 19:30 -4.3° C wolkenlos
Mi, 22.01. 19:00 -3.3° C wolkenlos
Mi, 22.01. 18:30 -3.2° C wolkenlos
Mi, 22.01. 18:00 -2.4° C wolkenlos
Ortszeit Relative Feuchte Sichtweite
Mi, 22.01. 19:00 96% 4.4 km
Mi, 22.01. 13:00 93% 4.7 km
Mi, 22.01. 7:00 97% 100 m
Mi, 22.01. 1:00 96% 0.6 km
Di, 21.01. 19:00 97% 100 m
Di, 21.01. 13:00 96% 2.3 km
Di, 21.01. 7:00 98% 0.3 km
Di, 21.01. 1:00 92% 10 km
Ortszeit Relative Feuchte Sichtweite
Mi, 22.01. 21:00 96% 4.8 km
Mi, 22.01. 20:50 96% -
Mi, 22.01. 20:40 97% -
Mi, 22.01. 20:30 97% 0.4 km
Mi, 22.01. 20:20 97% -
Mi, 22.01. 20:10 97% -
Mi, 22.01. 20:00 97% 100 m
Mi, 22.01. 19:30 96% 3.1 km
Mi, 22.01. 19:00 96% 4.4 km
Mi, 22.01. 18:30 96% 4.1 km
Mi, 22.01. 18:00 94% 6 km
Ortszeit Niederschlagsmenge Niederschlagsart
Mi, 22.01. 19:00 0.1 l/m2 in 12 Std. -
Mi, 22.01. 13:00 0.1 l/m2 in 6 Std. Schnee, Sprühregen
Mi, 22.01. 7:00 0.1 l/m2 in 12 Std. -
Mi, 22.01. 1:00 0.1 l/m2 in 6 Std. Schnee
Di, 21.01. 19:00 0.0 l/m2 in 12 Std. -
Di, 21.01. 13:00 0.0 l/m2 in 6 Std. -
Di, 21.01. 7:00 0.0 l/m2 in 12 Std. -
Di, 21.01. 1:00 0.0 l/m2 in 6 Std. -
Ortszeit Niederschlagsmenge Niederschlagsart
Mi, 22.01. 21:00 0.0 l/m2 in 1 Std. -
Mi, 22.01. 20:50 keine Meldung -
Mi, 22.01. 20:40 keine Meldung -
Mi, 22.01. 20:30 0.0 l/m2 in 1 Std. -
Mi, 22.01. 20:20 keine Meldung -
Mi, 22.01. 20:10 keine Meldung -
Mi, 22.01. 20:00 0.0 l/m2 in 1 Std. -
Mi, 22.01. 19:30 0.0 l/m2 in 1 Std. -
Mi, 22.01. 19:00 0.0 l/m2 in 1 Std. -
Mi, 22.01. 18:30 0.0 l/m2 in 1 Std. -
Mi, 22.01. 18:00 0.0 l/m2 in 1 Std. -
Ortszeit Stärke Spitze Richtung
km/h Bft. km/h Grad Sektor
Mi, 22.01. 19:00 11 2 14 90° O
Mi, 22.01. 13:00 7 2 22 130° SO
Mi, 22.01. 7:00 7 2 25 70° O
Mi, 22.01. 1:00 7 2 25 130° SO
Di, 21.01. 19:00 13 3 26 120° SO
Di, 21.01. 13:00 7 2 25 120° SO
Di, 21.01. 7:00 11 2 40 120° SO
Di, 21.01. 1:00 24 4 43 110° O
Ortszeit Stärke Spitze Richtung
km/h Bft. km/h Grad Sektor
Mi, 22.01. 21:00 15 3 22 110° O
Mi, 22.01. 20:50 15 3 - 110° O
Mi, 22.01. 20:40 11 2 - 120° SO
Mi, 22.01. 20:30 11 2 18 120° SO
Mi, 22.01. 20:20 11 2 - 120° SO
Mi, 22.01. 20:10 11 2 - 110° O
Mi, 22.01. 20:00 11 2 15 90° O
Mi, 22.01. 19:30 6 1 11 10° N
Mi, 22.01. 19:00 11 2 14 90° O
Mi, 22.01. 18:30 11 2 14 110° O
Mi, 22.01. 18:00 9 2 17 120° SO
Ortszeit Untergrenze Bedeckung Gattung
total tief tief mittel hoch
Mi, 22.01. 19:00 - 0/8 0/8 - - -
Mi, 22.01. 13:00 30 m 1/8 1/8 - - -
Mi, 22.01. 7:00 <30 m 4/8 0/8 - - -
Mi, 22.01. 1:00 <30 m 8/8 0/8 - - -
Di, 21.01. 19:00 <30 m 8/8 0/8 - - -
Di, 21.01. 13:00 30 m 8/8 8/8 - - -
Di, 21.01. 7:00 <30 m 8/8 0/8 - - -
Di, 21.01. 1:00 210 m 2/8 2/8 - - -
Ortszeit Bedeckungsgrad in Achtel und Wolkenuntergrenze
Mi, 22.01. 21:00 4(<30m)
Mi, 22.01. 20:50 4(<30m)
Mi, 22.01. 20:40 7(<30m)
Mi, 22.01. 20:30 6(<30m)
Mi, 22.01. 20:20 6(<30m)
Mi, 22.01. 20:10 6(<30m)
Mi, 22.01. 20:00 6(<30m)
Mi, 22.01. 19:30 keine Wolken
Mi, 22.01. 19:00 keine Wolken
Mi, 22.01. 18:30 keine Wolken
Mi, 22.01. 18:00 keine Wolken
Ortszeit Luftdruck NN (hPa) Tendenz (hPa in 3 Std.)
Mi, 22.01. 19:00 1036 0,0
Mi, 22.01. 13:00 1036 - 0,6
Mi, 22.01. 7:00 1037 - 0,5
Mi, 22.01. 1:00 1039 - 0,5
Di, 21.01. 19:00 1041 - 0,8
Di, 21.01. 13:00 1043 - 0,8
Di, 21.01. 7:00 1043 - 0,5
Di, 21.01. 1:00 1044 - 0,6
Ortszeit Luftdruck NN (hPa) Tendenz (hPa in 3 Std.)
Mi, 22.01. 21:00 1037 + 0,7
Mi, 22.01. 20:50 1037 keine Meldung
Mi, 22.01. 20:40 1037 keine Meldung
Mi, 22.01. 20:30 1037 + 1,0
Mi, 22.01. 20:20 1037 keine Meldung
Mi, 22.01. 20:10 1037 keine Meldung
Mi, 22.01. 20:00 1037 + 1,0
Mi, 22.01. 19:30 1037 + 0,5
Mi, 22.01. 19:00 1036 0,0
Mi, 22.01. 18:30 1036 0,0
Mi, 22.01. 18:00 1035 - 0,2
Ortszeit Schneehöhe (cm)
Mi, 22.01. 19:00 1
Mi, 22.01. 13:00 2
Mi, 22.01. 7:00 1
Mi, 22.01. 1:00 1
Di, 21.01. 19:00 0
Di, 21.01. 13:00 0
Di, 21.01. 7:00 0
Di, 21.01. 1:00 0
Ortszeit Schneehöhe (cm)
Mi, 22.01. 21:00 1
Mi, 22.01. 20:50 1
Mi, 22.01. 20:40 1
Mi, 22.01. 20:30 1
Mi, 22.01. 20:20 1
Mi, 22.01. 20:10 1
Mi, 22.01. 20:00 1
Mi, 22.01. 19:30 1
Mi, 22.01. 19:00 1
Mi, 22.01. 18:30 1
Mi, 22.01. 18:00 1
Link zu dieser Seite / Seite empfehlen

Das Wetter in ...